Time;durP1;ratioP1;P1;durP2;ratioP2;P2;SDS_P1;SDS_P2;PMS_P1;PMS_P2;Temp;Humidity;BMP_temperature;BMP_pressure;BME280_temperature;BME280_humidity;BME280_pressure;Samples;Min_cycle;Max_cycle;Signal;HPM_P1;HPM_P2
2021/12/15 00:01:24;;;;;;;390.98;219.68;;;3.50;99.90;;;;;;4999172;28;20057;-77
2021/12/15 00:03:51;;;;;;;389.38;218.88;;;3.40;99.90;;;;;;5002940;28;20117;-77
2021/12/15 00:06:19;;;;;;;395.50;225.48;;;3.40;99.90;;;;;;5015329;28;20049;-75
2021/12/15 00:08:48;;;;;;;396.90;219.93;;;3.40;99.90;;;;;;5040340;28;20040;-77
2021/12/15 00:11:16;;;;;;;395.20;219.05;;;3.50;1.00;;;;;;5039407;28;20033;-78
2021/12/15 00:13:46;;;;;;;404.60;223.60;;;3.50;99.90;;;;;;5040265;28;20038;-77
2021/12/15 00:16:15;;;;;;;350.50;191.63;;;3.50;99.90;;;;;;5021706;28;20028;-75
2021/12/15 00:18:45;;;;;;;335.33;186.43;;;3.50;99.90;;;;;;5039846;28;20085;-77
2021/12/15 00:21:15;;;;;;;337.77;188.93;;;3.50;99.90;;;;;;5000821;28;20065;-77
2021/12/15 00:23:44;;;;;;;351.08;197.13;;;3.60;99.90;;;;;;5000672;28;20054;-77
2021/12/15 00:26:12;;;;;;;360.50;199.60;;;3.60;99.90;;;;;;5000839;28;20054;-75
2021/12/15 00:28:41;;;;;;;370.00;206.10;;;3.60;99.90;;;;;;5001259;28;20038;-76
2021/12/15 00:31:09;;;;;;;378.52;213.82;;;3.70;99.90;;;;;;5000473;28;20060;-76
2021/12/15 00:33:40;;;;;;;360.23;199.48;;;3.60;52.90;;;;;;5018517;28;20045;-76
2021/12/15 00:36:09;;;;;;;337.85;183.85;;;3.60;99.90;;;;;;5017246;28;20060;-76
2021/12/15 00:38:37;;;;;;;331.27;185.75;;;3.60;72.10;;;;;;5000469;28;20050;-77
2021/12/15 00:41:05;;;;;;;323.60;182.70;;;3.60;1.00;;;;;;4998151;28;20516;-77
2021/12/15 00:43:32;;;;;;;328.65;176.65;;;3.60;1.00;;;;;;4977685;28;20054;-76
2021/12/15 00:46:00;;;;;;;344.50;190.32;;;3.60;16.40;;;;;;4998409;28;20050;-76
2021/12/15 00:48:28;;;;;;;342.63;189.30;;;3.60;56.70;;;;;;4995759;28;20066;-76
2021/12/15 00:50:56;;;;;;;322.98;180.30;;;3.60;99.90;;;;;;4997494;28;20042;-76
2021/12/15 00:53:25;;;;;;;324.15;176.73;;;3.60;28.70;;;;;;4997283;28;20054;-76
2021/12/15 00:55:52;;;;;;;243.05;131.88;;;3.70;10.40;;;;;;4995917;28;20060;-77
2021/12/15 00:58:20;;;;;;;291.17;155.95;;;3.60;1.00;;;;;;4998036;28;20042;-77
2021/12/15 01:00:50;;;;;;;311.15;168.95;;;3.60;47.90;;;;;;4995472;28;20053;-76
2021/12/15 01:03:18;;;;;;;322.25;172.95;;;3.60;99.90;;;;;;4996448;28;20072;-76
2021/12/15 01:05:50;;;;;;;312.02;175.18;;;3.70;99.90;;;;;;4996174;28;20046;-76
2021/12/15 01:08:20;;;;;;;320.05;178.02;;;3.60;1.00;;;;;;4997409;28;20403;-77
2021/12/15 01:11:02;;;;;;;336.05;187.82;;;3.60;1.00;;;;;;4996168;28;20125;-76
2021/12/15 01:21:50;;;;;;;351.42;198.93;;;3.40;99.90;;;;;;4998217;28;20050;-76
2021/12/15 01:24:18;;;;;;;368.80;203.63;;;3.40;99.90;;;;;;5004761;28;20093;-77
2021/12/15 01:26:47;;;;;;;352.08;193.75;;;3.50;99.90;;;;;;5019543;28;20065;-76
2021/12/15 01:29:16;;;;;;;316.48;178.18;;;3.50;99.90;;;;;;5016626;28;20050;-77
2021/12/15 01:31:43;;;;;;;319.83;178.50;;;3.50;99.90;;;;;;5016145;28;20113;-76
2021/12/15 01:34:11;;;;;;;303.50;167.82;;;3.50;99.90;;;;;;5001275;28;20062;-77
2021/12/15 01:36:38;;;;;;;298.80;164.68;;;3.60;1.00;;;;;;5000480;28;20101;-77
2021/12/15 01:39:07;;;;;;;307.83;166.63;;;3.60;1.00;;;;;;5001114;28;20543;-77
2021/12/15 01:41:36;;;;;;;299.70;165.52;;;3.50;1.00;;;;;;4997361;28;20133;-76
2021/12/15 01:46:56;;;;;;;302.98;167.18;;;3.60;99.90;;;;;;5016728;28;20092;-76
2021/12/15 01:49:30;;;;;;;329.13;180.50;;;3.50;18.00;;;;;;5001040;28;20050;-77
2021/12/15 01:52:01;;;;;;;323.38;174.02;;;3.40;99.90;;;;;;4999566;28;20104;-77
2021/12/15 01:54:32;;;;;;;296.75;160.05;;;3.50;99.90;;;;;;5020194;28;20122;-76
2021/12/15 01:56:59;;;;;;;321.15;172.18;;;3.50;99.90;;;;;;5021397;28;20074;-77
2021/12/15 01:59:30;;;;;;;253.98;141.75;;;3.50;99.90;;;;;;5001705;28;20044;-74
2021/12/15 02:01:58;;;;;;;303.90;161.82;;;3.40;84.50;;;;;;5016167;28;20097;-76
2021/12/15 02:04:25;;;;;;;308.73;164.60;;;3.40;99.90;;;;;;5017104;28;20048;-77
2021/12/15 02:06:55;;;;;;;278.08;153.57;;;3.60;45.20;;;;;;4998396;28;20104;-77
2021/12/15 02:09:42;;;;;;;291.25;164.63;;;3.50;1.00;;;;;;4999259;28;20053;-76
2021/12/15 02:12:12;;;;;;;304.52;165.88;;;3.40;1.00;;;;;;5003243;28;20141;-77
2021/12/15 02:14:43;;;;;;;314.73;173.32;;;3.30;99.90;;;;;;5016522;28;20557;-77
2021/12/15 02:17:11;;;;;;;327.58;179.88;;;3.30;99.90;;;;;;5010865;28;20054;-77
2021/12/15 02:19:38;;;;;;;344.50;190.85;;;3.20;99.90;;;;;;5016297;28;20537;-75
2021/12/15 02:22:07;;;;;;;336.30;182.15;;;3.20;99.90;;;;;;5001602;28;20103;-75
2021/12/15 02:24:39;;;;;;;316.30;168.85;;;3.10;99.90;;;;;;4999326;28;20050;-75
2021/12/15 02:27:07;;;;;;;297.73;159.05;;;3.10;1.00;;;;;;4998681;28;20572;-76
2021/12/15 02:29:40;;;;;;;278.70;151.35;;;3.10;1.00;;;;;;5019238;28;20049;-74
2021/12/15 02:32:17;;;;;;;295.05;157.77;;;3.10;1.00;;;;;;5011433;28;20053;-75
2021/12/15 02:34:57;;;;;;;247.93;139.23;;;3.10;1.00;;;;;;5001830;28;20042;-76
2021/12/15 02:37:26;;;;;;;285.75;143.93;;;3.10;1.00;;;;;;4983571;28;20137;-76
2021/12/15 02:39:57;;;;;;;347.98;168.00;;;3.00;1.00;;;;;;4983952;28;20042;-75
2021/12/15 02:42:30;;;;;;;303.58;154.80;;;3.00;1.00;;;;;;4994487;28;20069;-76
2021/12/15 02:44:58;;;;;;;292.80;156.75;;;3.00;1.00;;;;;;5020694;28;20124;-77
2021/12/15 02:47:28;;;;;;;324.50;174.30;;;3.10;99.90;;;;;;5003690;28;20073;-75
2021/12/15 02:49:57;;;;;;;311.38;161.90;;;3.20;1.00;;;;;;5022336;28;20041;-76
2021/12/15 02:52:27;;;;;;;284.42;153.63;;;3.30;1.00;;;;;;5020448;28;20042;-76
2021/12/15 02:54:55;;;;;;;265.80;144.95;;;3.30;1.00;;;;;;5002485;28;20054;-75
2021/12/15 02:57:23;;;;;;;269.08;145.02;;;3.30;1.00;;;;;;5019322;28;20397;-76
2021/12/15 02:59:57;;;;;;;270.42;146.13;;;3.30;99.90;;;;;;5019346;28;20120;-76
2021/12/15 03:02:56;;;;;;;250.35;137.38;;;3.30;99.90;;;;;;4986282;28;20052;-76
2021/12/15 03:05:28;;;;;;;262.88;130.57;;;3.30;99.90;;;;;;5019051;28;20045;-74
2021/12/15 03:08:06;;;;;;;255.05;132.18;;;3.20;99.90;;;;;;5019485;28;20624;-77
2021/12/15 03:16:06;;;;;;;219.30;117.00;;;3.10;99.90;;;;;;4999871;28;20046;-77
2021/12/15 03:18:34;;;;;;;234.45;125.28;;;3.10;99.90;;;;;;4986295;28;20132;-76
2021/12/15 03:21:04;;;;;;;248.60;138.45;;;3.00;99.90;;;;;;5020762;28;20049;-76
2021/12/15 03:23:39;;;;;;;230.75;129.10;;;3.00;1.00;;;;;;5023620;28;20044;-76
2021/12/15 03:26:08;;;;;;;247.97;136.10;;;3.00;1.00;;;;;;5023012;28;20046;-78
2021/12/15 03:34:25;;;;;;;253.10;140.98;;;3.00;1.00;;;;;;5022459;28;20485;-74
2021/12/15 03:37:21;;;;;;;249.35;135.25;;;3.00;1.00;;;;;;5022591;28;20050;-77
2021/12/15 03:39:53;;;;;;;274.20;146.77;;;2.90;1.00;;;;;;4999809;28;20056;-77
2021/12/15 03:42:26;;;;;;;259.80;136.98;;;2.80;1.00;;;;;;4984062;28;20042;-76
2021/12/15 03:44:54;;;;;;;258.20;141.50;;;2.80;1.00;;;;;;5042933;23;20050;-80
2021/12/15 03:47:24;;;;;;;239.98;131.93;;;2.90;1.00;;;;;;5020710;28;20140;-80
2021/12/15 03:49:54;;;;;;;266.08;139.63;;;2.90;1.00;;;;;;5037577;28;20087;-79
2021/12/15 03:52:21;;;;;;;277.70;148.70;;;2.90;1.00;;;;;;5037485;28;20403;-80
2021/12/15 03:54:51;;;;;;;247.43;137.63;;;2.90;1.00;;;;;;5036900;28;20059;-81
2021/12/15 03:57:20;;;;;;;255.07;137.40;;;2.90;1.00;;;;;;5037019;28;20045;-82
2021/12/15 03:59:47;;;;;;;276.40;147.52;;;2.90;1.00;;;;;;5038140;28;20037;-82
2021/12/15 04:02:18;;;;;;;260.42;143.82;;;2.90;1.00;;;;;;5019851;28;20465;-82
2021/12/15 04:04:47;;;;;;;247.98;134.63;;;3.00;1.00;;;;;;5019689;28;20095;-82
2021/12/15 04:07:16;;;;;;;232.68;131.15;;;3.00;1.00;;;;;;5037692;28;20042;-81
2021/12/15 04:09:44;;;;;;;230.90;128.80;;;3.00;1.00;;;;;;5038019;28;20413;-83
2021/12/15 04:12:15;;;;;;;225.93;125.85;;;3.10;1.00;;;;;;5038463;28;20037;-82
2021/12/15 04:14:45;;;;;;;225.40;122.65;;;3.00;99.90;;;;;;5029776;28;20049;-81
2021/12/15 04:17:30;;;;;;;264.15;137.02;;;3.00;99.90;;;;;;5038608;28;20044;-82
2021/12/15 04:20:00;;;;;;;245.15;133.85;;;3.00;99.90;;;;;;5020708;28;20139;-83
2021/12/15 04:22:28;;;;;;;237.93;128.18;;;3.00;99.90;;;;;;5038403;28;20540;-82
2021/12/15 04:24:57;;;;;;;228.85;122.32;;;3.00;99.90;;;;;;5019599;28;20828;-81
2021/12/15 04:27:27;;;;;;;218.02;117.55;;;3.00;99.90;;;;;;5019051;28;20493;-82
2021/12/15 04:29:54;;;;;;;206.27;110.93;;;2.90;99.90;;;;;;5019756;28;20045;-82
2021/12/15 04:32:27;;;;;;;196.88;108.15;;;3.00;1.00;;;;;;5019932;28;20045;-81
2021/12/15 04:34:55;;;;;;;185.90;99.53;;;3.10;99.90;;;;;;5037484;28;20128;-80
2021/12/15 04:37:22;;;;;;;172.80;100.00;;;3.10;99.90;;;;;;5037933;28;20046;-80
2021/12/15 04:39:50;;;;;;;182.95;99.72;;;3.10;99.90;;;;;;5037541;28;20051;-80
2021/12/15 04:42:19;;;;;;;187.68;102.07;;;3.10;87.30;;;;;;5019899;28;20052;-82
2021/12/15 04:44:49;;;;;;;180.90;98.35;;;3.10;99.90;;;;;;5043796;28;20136;-82
2021/12/15 04:47:16;;;;;;;175.35;94.25;;;3.10;99.90;;;;;;5057476;28;20056;-81
2021/12/15 04:49:50;;;;;;;178.05;98.00;;;3.10;99.90;;;;;;5045081;28;20378;-82
2021/12/15 04:52:19;;;;;;;189.07;98.07;;;3.10;99.90;;;;;;5032226;28;20053;-80
2021/12/15 04:54:47;;;;;;;185.13;99.68;;;3.10;81.50;;;;;;5056477;28;20052;-82
2021/12/15 04:57:17;;;;;;;168.23;93.72;;;3.10;89.00;;;;;;5051701;28;20041;-79
2021/12/15 04:59:45;;;;;;;202.93;105.78;;;3.20;99.90;;;;;;5019569;28;20045;-82
2021/12/15 05:02:16;;;;;;;199.95;103.63;;;3.30;99.60;;;;;;5016297;28;20042;-82
2021/12/15 05:04:44;;;;;;;188.75;100.13;;;3.30;79.80;;;;;;5000012;28;20056;-82
2021/12/15 05:07:12;;;;;;;175.25;90.80;;;3.40;99.90;;;;;;5017834;28;20050;-80
2021/12/15 05:09:40;;;;;;;171.00;91.13;;;3.40;1.00;;;;;;5014325;28;20072;-81
2021/12/15 05:12:09;;;;;;;183.95;99.55;;;3.50;1.00;;;;;;5034939;28;20077;-81
2021/12/15 05:14:36;;;;;;;182.65;100.82;;;3.40;1.00;;;;;;5025287;28;20046;-79
2021/12/15 05:17:05;;;;;;;182.10;101.80;;;3.50;1.00;;;;;;5043811;28;20049;-83
2021/12/15 05:19:34;;;;;;;177.82;98.18;;;3.40;1.00;;;;;;5036934;28;20100;-81
2021/12/15 05:22:04;;;;;;;190.85;104.10;;;3.30;1.00;;;;;;5035393;28;20073;-82
2021/12/15 05:24:31;;;;;;;184.20;101.65;;;3.40;1.00;;;;;;5037700;28;20072;-80
2021/12/15 05:27:01;;;;;;;204.27;114.15;;;3.40;1.00;;;;;;5037963;28;20045;-82
2021/12/15 05:29:30;;;;;;;196.93;111.28;;;3.50;1.00;;;;;;5041196;28;20041;-82
2021/12/15 05:31:57;;;;;;;201.18;113.38;;;3.30;1.00;;;;;;5053435;28;20040;-79
2021/12/15 05:34:25;;;;;;;189.60;107.40;;;3.30;1.00;;;;;;5055014;28;20029;-78
2021/12/15 05:36:55;;;;;;;202.48;113.90;;;3.10;9.60;;;;;;5031978;28;20046;-79
2021/12/15 05:39:23;;;;;;;228.68;132.85;;;3.10;99.90;;;;;;5044904;28;20041;-79
2021/12/15 05:41:51;;;;;;;239.73;137.45;;;3.10;99.90;;;;;;5070453;28;20041;-81
2021/12/15 05:44:20;;;;;;;182.52;107.85;;;3.10;99.90;;;;;;5045812;28;20117;-79
2021/12/15 05:46:48;;;;;;;239.75;126.75;;;3.10;99.90;;;;;;5051800;28;20041;-80
2021/12/15 05:49:15;;;;;;;251.88;132.68;;;3.10;99.90;;;;;;5054001;28;20029;-79
2021/12/15 05:51:43;;;;;;;209.93;113.00;;;3.20;99.90;;;;;;5050634;28;20037;-80
2021/12/15 05:54:11;;;;;;;252.02;131.35;;;3.30;99.90;;;;;;5050683;28;20068;-80
2021/12/15 05:56:39;;;;;;;227.73;121.80;;;3.30;99.90;;;;;;5051935;28;20045;-79
2021/12/15 05:59:07;;;;;;;256.20;138.70;;;3.30;99.90;;;;;;5049026;28;20038;-80
2021/12/15 06:01:35;;;;;;;200.88;114.40;;;3.40;99.90;;;;;;5036878;28;20136;-80
2021/12/15 06:04:05;;;;;;;178.05;100.30;;;3.40;1.00;;;;;;5038271;28;20045;-79
2021/12/15 06:06:33;;;;;;;189.65;103.72;;;3.40;1.00;;;;;;5038697;28;20076;-82
2021/12/15 06:09:01;;;;;;;193.60;107.10;;;3.40;1.00;;;;;;5039728;28;20057;-81
2021/12/15 06:11:30;;;;;;;238.95;130.57;;;3.40;1.00;;;;;;5040929;28;20124;-82
2021/12/15 06:13:58;;;;;;;282.00;147.65;;;3.50;1.00;;;;;;5039171;28;20082;-82
2021/12/15 06:16:25;;;;;;;277.27;145.50;;;3.60;1.00;;;;;;5040819;28;20501;-81
2021/12/15 06:18:53;;;;;;;255.38;134.18;;;3.60;1.00;;;;;;5039641;28;20045;-81
2021/12/15 06:21:22;;;;;;;229.95;123.80;;;3.50;1.00;;;;;;5039252;28;20037;-82
2021/12/15 06:23:52;;;;;;;223.68;120.75;;;3.50;1.00;;;;;;5039592;28;20113;-81
2021/12/15 06:26:20;;;;;;;224.63;117.68;;;3.40;1.00;;;;;;5038337;28;20069;-82
2021/12/15 06:28:49;;;;;;;217.13;123.25;;;3.40;1.00;;;;;;5041837;28;20045;-80
2021/12/15 06:31:18;;;;;;;221.88;127.05;;;3.40;1.00;;;;;;5045643;28;20038;-81
2021/12/15 06:33:47;;;;;;;218.82;128.68;;;3.50;1.00;;;;;;5048120;28;20061;-80
2021/12/15 06:36:20;;;;;;;215.82;124.35;;;3.50;1.00;;;;;;5035199;28;20112;-81
2021/12/15 06:38:50;;;;;;;227.20;129.40;;;3.50;1.00;;;;;;5035877;28;20657;-80
2021/12/15 06:41:18;;;;;;;215.88;122.43;;;3.50;1.00;;;;;;5036409;28;20049;-80
2021/12/15 06:43:51;;;;;;;253.23;140.40;;;3.50;1.00;;;;;;5035747;28;20053;-80
2021/12/15 06:46:43;;;;;;;238.88;130.68;;;3.50;1.00;;;;;;5026359;28;20053;-81
2021/12/15 07:00:14;;;;;;;314.13;153.93;;;3.60;1.00;;;;;;5044418;28;20131;-82
2021/12/15 07:02:43;;;;;;;336.63;160.50;;;3.70;1.00;;;;;;5051490;28;20044;-82
2021/12/15 07:05:12;;;;;;;272.27;139.13;;;3.70;1.00;;;;;;5058000;28;20041;-80
2021/12/15 07:07:40;;;;;;;268.80;135.25;;;3.70;1.00;;;;;;5056748;28;20041;-82
2021/12/15 07:10:10;;;;;;;270.48;133.13;;;3.80;1.00;;;;;;5059346;28;20041;-81
2021/12/15 07:12:38;;;;;;;273.23;133.20;;;3.90;1.00;;;;;;5043370;28;20056;-82
2021/12/15 07:15:08;;;;;;;276.27;131.45;;;3.80;1.00;;;;;;5062717;28;20051;-83
2021/12/15 07:17:39;;;;;;;269.83;136.88;;;3.90;1.00;;;;;;5061700;28;20127;-83
2021/12/15 07:20:29;;;;;;;244.35;118.72;;;3.80;1.00;;;;;;5043293;28;20045;-81
2021/12/15 07:22:57;;;;;;;262.95;130.13;;;3.80;1.00;;;;;;5063106;28;20045;-82
2021/12/15 07:25:24;;;;;;;229.48;111.15;;;3.80;1.00;;;;;;5063633;28;20045;-81
2021/12/15 07:27:53;;;;;;;234.45;115.53;;;3.80;1.00;;;;;;5063997;28;20127;-82
2021/12/15 07:30:21;;;;;;;251.93;121.85;;;3.80;1.00;;;;;;5045938;28;20041;-82
2021/12/15 07:32:50;;;;;;;275.63;132.00;;;3.80;1.00;;;;;;5045603;28;20106;-81
2021/12/15 07:35:19;;;;;;;254.68;123.45;;;3.80;1.00;;;;;;5043693;28;20056;-82
2021/12/15 07:37:47;;;;;;;276.63;135.05;;;3.80;1.00;;;;;;5061265;28;20045;-82
2021/12/15 07:40:20;;;;;;;259.58;128.05;;;3.90;1.00;;;;;;5051090;28;20040;-81
2021/12/15 07:43:03;;;;;;;254.95;124.47;;;3.80;1.00;;;;;;5059418;28;20068;-81
2021/12/15 07:45:33;;;;;;;251.68;121.35;;;3.80;1.00;;;;;;5057599;28;20071;-78
2021/12/15 07:48:04;;;;;;;254.50;126.13;;;4.00;1.00;;;;;;5059586;28;20128;-83
2021/12/15 07:50:33;;;;;;;262.05;122.57;;;4.10;1.00;;;;;;5033790;28;20049;-82
2021/12/15 07:53:01;;;;;;;276.55;131.20;;;4.10;1.00;;;;;;5059939;28;20051;-82
2021/12/15 07:55:29;;;;;;;260.42;123.18;;;4.20;1.00;;;;;;5052305;28;20508;-83
2021/12/15 07:57:56;;;;;;;266.77;128.98;;;4.30;1.00;;;;;;5041398;28;20060;-80
2021/12/15 08:00:25;;;;;;;249.38;122.25;;;4.30;1.00;;;;;;5060501;28;20462;-82
2021/12/15 08:02:53;;;;;;;273.20;127.63;;;4.30;1.00;;;;;;5060487;28;20338;-81
2021/12/15 08:05:22;;;;;;;268.08;130.93;;;4.30;1.00;;;;;;5060610;28;20380;-82
2021/12/15 08:07:50;;;;;;;278.80;129.10;;;4.40;1.00;;;;;;5060371;28;20056;-81
2021/12/15 08:10:18;;;;;;;278.55;134.95;;;4.30;1.00;;;;;;5060431;28;20037;-84
2021/12/15 08:12:46;;;;;;;288.30;137.93;;;4.20;1.00;;;;;;5059435;28;20356;-79
2021/12/15 08:15:16;;;;;;;297.58;140.38;;;4.20;1.00;;;;;;5052566;28;20072;-77
2021/12/15 08:17:48;;;;;;;282.48;134.10;;;4.10;1.00;;;;;;5032221;28;20049;-76
2021/12/15 08:20:16;;;;;;;289.95;133.40;;;4.00;1.00;;;;;;5051369;28;20507;-78
2021/12/15 08:22:45;;;;;;;296.13;136.30;;;4.00;1.00;;;;;;5053172;28;20041;-78
2021/12/15 08:25:15;;;;;;;283.17;134.57;;;4.00;1.00;;;;;;5057461;28;20049;-83
2021/12/15 08:27:44;;;;;;;290.13;136.18;;;4.00;1.00;;;;;;5065210;28;20037;-81
2021/12/15 08:30:19;;;;;;;289.55;135.20;;;4.10;1.00;;;;;;5052185;28;20061;-84
2021/12/15 08:32:46;;;;;;;284.52;130.55;;;4.20;1.00;;;;;;5061589;28;20040;-81
2021/12/15 08:35:15;;;;;;;275.25;130.30;;;4.40;1.00;;;;;;5069147;28;20045;-84
2021/12/15 08:37:44;;;;;;;272.42;127.93;;;4.50;1.00;;;;;;5068518;28;20052;-83
2021/12/15 08:40:13;;;;;;;265.48;126.80;;;4.50;1.00;;;;;;5068198;28;20381;-82
2021/12/15 08:42:40;;;;;;;264.05;124.68;;;4.60;1.00;;;;;;5066608;28;20071;-82
2021/12/15 08:45:09;;;;;;;267.88;121.95;;;4.60;1.00;;;;;;5069126;28;20057;-83
2021/12/15 08:47:37;;;;;;;220.45;105.22;;;4.60;99.90;;;;;;5073911;28;20100;-84
2021/12/15 08:50:09;;;;;;;208.80;99.78;;;4.70;99.90;;;;;;5072971;28;20052;-83
2021/12/15 08:52:37;;;;;;;199.20;97.10;;;4.70;99.90;;;;;;5053096;28;20057;-84
2021/12/15 08:55:10;;;;;;;205.32;101.03;;;4.70;99.90;;;;;;5069913;28;20479;-83
2021/12/15 08:57:37;;;;;;;188.23;91.72;;;4.80;99.90;;;;;;5071797;28;20500;-84
2021/12/15 09:00:07;;;;;;;194.73;92.90;;;4.90;99.90;;;;;;5066705;28;20056;-83
2021/12/15 09:02:36;;;;;;;270.15;121.07;;;4.90;99.90;;;;;;5063901;28;20041;-82
2021/12/15 09:05:04;;;;;;;261.88;119.65;;;4.90;97.30;;;;;;5062626;28;20041;-82
2021/12/15 09:07:32;;;;;;;246.70;119.47;;;4.90;93.00;;;;;;5060617;28;20068;-82
2021/12/15 09:09:59;;;;;;;228.63;109.78;;;5.00;99.90;;;;;;5058943;28;20084;-81
2021/12/15 09:12:28;;;;;;;225.65;106.60;;;5.10;56.70;;;;;;5060168;28;20052;-82
2021/12/15 09:14:56;;;;;;;235.35;108.60;;;5.10;1.00;;;;;;5042058;28;20063;-83
2021/12/15 09:17:23;;;;;;;229.93;108.47;;;5.10;1.00;;;;;;5060665;28;20052;-80
2021/12/15 09:19:50;;;;;;;227.07;105.10;;;5.30;1.00;;;;;;5060926;28;20052;-81
2021/12/15 09:22:18;;;;;;;206.57;96.78;;;5.30;1.00;;;;;;5042916;28;20045;-83
2021/12/15 09:24:45;;;;;;;210.48;100.40;;;5.20;1.00;;;;;;5060138;28;20065;-81
2021/12/15 09:27:13;;;;;;;199.85;94.18;;;5.20;1.00;;;;;;5035252;28;20409;-83
2021/12/15 09:29:42;;;;;;;202.00;99.00;;;5.20;1.00;;;;;;5060897;28;20044;-82
2021/12/15 09:32:09;;;;;;;204.38;97.57;;;5.20;1.00;;;;;;5044313;28;20045;-83
2021/12/15 09:34:37;;;;;;;204.50;99.20;;;5.30;1.00;;;;;;5062750;28;20045;-78
2021/12/15 09:37:05;;;;;;;220.50;103.38;;;5.30;1.00;;;;;;5042570;28;20044;-83
2021/12/15 09:39:33;;;;;;;212.43;102.53;;;5.30;1.00;;;;;;5059575;28;20041;-83
2021/12/15 09:42:01;;;;;;;230.48;107.10;;;5.20;1.00;;;;;;5059941;28;20411;-82
2021/12/15 09:44:29;;;;;;;227.85;109.35;;;5.30;1.00;;;;;;5057315;28;20067;-82
2021/12/15 09:47:11;;;;;;;213.02;108.60;;;5.30;1.00;;;;;;5056656;28;20075;-82
2021/12/15 10:03:42;;;;;;;195.07;96.88;;;5.50;1.00;;;;;;5049223;28;20045;-83
2021/12/15 10:06:24;;;;;;;200.48;95.03;;;5.60;1.00;;;;;;5032405;28;20049;-84
2021/12/15 10:20:00;;;;;;;231.00;109.72;;;5.70;1.00;;;;;;5054425;28;20128;-84
2021/12/15 10:22:38;;;;;;;218.77;109.50;;;5.70;1.00;;;;;;5059292;28;20036;-82
2021/12/15 10:25:10;;;;;;;215.38;107.15;;;5.70;1.00;;;;;;5056891;28;20055;-84
2021/12/15 10:27:43;;;;;;;211.80;104.47;;;5.70;1.00;;;;;;5038547;28;20559;-83
2021/12/15 10:30:19;;;;;;;209.40;108.10;;;5.70;1.00;;;;;;5055802;28;20051;-81
2021/12/15 10:32:50;;;;;;;215.15;107.25;;;5.70;1.00;;;;;;5038591;28;20049;-83
2021/12/15 10:35:21;;;;;;;226.90;110.75;;;5.70;1.00;;;;;;5060131;28;20053;-84
2021/12/15 10:38:11;;;;;;;231.50;114.20;;;5.70;1.00;;;;;;5069395;28;20055;-82
2021/12/15 10:40:42;;;;;;;226.40;113.82;;;5.70;1.00;;;;;;5049564;28;20040;-81
2021/12/15 10:43:09;;;;;;;218.15;112.07;;;5.80;1.00;;;;;;5076668;28;20048;-80
2021/12/15 10:45:40;;;;;;;222.65;115.32;;;5.80;1.00;;;;;;5057898;28;20029;-82
2021/12/15 10:48:14;;;;;;;228.43;114.18;;;5.80;1.00;;;;;;5056787;28;20124;-80
2021/12/15 10:50:43;;;;;;;211.10;111.90;;;5.80;1.00;;;;;;5078863;28;20047;-81
2021/12/15 10:53:11;;;;;;;227.18;116.88;;;5.90;1.00;;;;;;5076669;28;20045;-82
2021/12/15 10:55:39;;;;;;;241.45;120.82;;;5.90;1.00;;;;;;5077188;28;20072;-81
2021/12/15 10:58:32;;;;;;;238.50;121.38;;;6.00;1.00;;;;;;5059399;28;20116;-81
2021/12/15 11:00:59;;;;;;;268.42;138.23;;;5.80;1.00;;;;;;5058148;28;20056;-83
2021/12/15 11:03:33;;;;;;;265.05;137.68;;;5.90;1.00;;;;;;5060278;28;20064;-81
2021/12/15 11:06:19;;;;;;;263.40;135.82;;;6.00;1.00;;;;;;5051545;28;20055;-82
2021/12/15 11:08:47;;;;;;;263.85;132.35;;;6.10;1.00;;;;;;5067131;28;20041;-83
2021/12/15 11:11:27;;;;;;;260.02;130.60;;;6.20;1.00;;;;;;5065194;28;20037;-82
2021/12/15 11:13:55;;;;;;;251.90;131.13;;;6.20;1.00;;;;;;5064661;28;20045;-84
2021/12/15 11:16:30;;;;;;;247.10;128.48;;;6.40;1.00;;;;;;5072465;28;20044;-83
2021/12/15 11:18:59;;;;;;;240.03;126.73;;;6.50;1.00;;;;;;5060076;28;20038;-80
2021/12/15 11:21:33;;;;;;;238.32;123.95;;;6.40;1.00;;;;;;5046725;28;20041;-82
2021/12/15 11:24:01;;;;;;;240.18;122.78;;;6.40;1.00;;;;;;5045856;28;20049;-81
2021/12/15 11:26:29;;;;;;;230.07;116.88;;;6.50;1.00;;;;;;5044888;28;20065;-82
2021/12/15 11:28:56;;;;;;;198.48;104.97;;;6.60;1.00;;;;;;5045155;28;20045;-83
2021/12/15 11:31:26;;;;;;;188.55;97.32;;;6.70;1.00;;;;;;5025395;28;20053;-82
2021/12/15 11:33:55;;;;;;;216.48;114.85;;;6.70;1.00;;;;;;5041362;28;20415;-83
2021/12/15 11:36:31;;;;;;;189.63;101.93;;;6.80;1.00;;;;;;5023340;28;20107;-82
2021/12/15 11:39:04;;;;;;;183.75;90.68;;;6.90;1.00;;;;;;5024596;28;20064;-82
2021/12/15 11:41:34;;;;;;;149.25;75.10;;;7.00;1.00;;;;;;5042312;28;20038;-84
2021/12/15 11:44:03;;;;;;;171.05;86.18;;;7.10;1.00;;;;;;5041799;28;20064;-82
2021/12/15 11:46:33;;;;;;;159.63;80.93;;;7.10;1.00;;;;;;5042036;28;20084;-82
2021/12/15 11:49:04;;;;;;;176.50;88.93;;;7.10;99.90;;;;;;5042506;28;20072;-82
2021/12/15 11:51:40;;;;;;;182.55;93.28;;;7.20;99.90;;;;;;5024062;28;20045;-83
2021/12/15 11:54:20;;;;;;;166.07;87.40;;;7.20;99.90;;;;;;5024407;28;20041;-82
2021/12/15 11:56:50;;;;;;;167.32;83.90;;;7.40;99.90;;;;;;5050850;28;20041;-81
2021/12/15 11:59:22;;;;;;;154.25;81.32;;;7.20;99.90;;;;;;5054867;28;20136;-82
2021/12/15 12:02:03;;;;;;;163.25;86.22;;;7.40;99.90;;;;;;5041424;28;20038;-83
2021/12/15 12:04:37;;;;;;;157.88;81.88;;;7.60;99.90;;;;;;5039939;28;20045;-81
2021/12/15 12:07:26;;;;;;;164.15;87.95;;;7.60;99.90;;;;;;5039867;28;20492;-81
2021/12/15 12:10:03;;;;;;;166.60;85.55;;;7.60;99.90;;;;;;5040351;28;20099;-83
2021/12/15 12:12:36;;;;;;;168.38;89.90;;;7.50;99.90;;;;;;5042692;28;20519;-83
2021/12/15 12:15:09;;;;;;;164.23;86.53;;;7.50;99.90;;;;;;5044373;28;20049;-82
2021/12/15 12:17:39;;;;;;;207.25;108.18;;;7.50;99.90;;;;;;5026460;28;20049;-83
2021/12/15 12:20:11;;;;;;;195.25;98.93;;;7.60;99.90;;;;;;5026319;28;20049;-81
2021/12/15 12:22:40;;;;;;;160.80;84.97;;;7.60;99.90;;;;;;5025879;28;20049;-81
2021/12/15 12:25:14;;;;;;;170.18;88.63;;;7.50;99.90;;;;;;5024720;28;20075;-82
2021/12/15 12:27:42;;;;;;;152.80;83.85;;;7.60;99.90;;;;;;5040729;28;20052;-83
2021/12/15 12:30:15;;;;;;;170.52;87.10;;;7.60;99.90;;;;;;5022226;28;20045;-85
2021/12/15 12:32:44;;;;;;;166.95;86.88;;;7.60;99.90;;;;;;5043824;28;20045;-82
2021/12/15 12:35:12;;;;;;;160.75;85.40;;;7.60;99.90;;;;;;5041816;28;20121;-82
2021/12/15 12:37:40;;;;;;;162.38;86.95;;;7.50;99.90;;;;;;5042169;28;20488;-83
2021/12/15 12:40:20;;;;;;;135.45;69.45;;;7.40;99.90;;;;;;5041537;28;20139;-84
2021/12/15 12:42:50;;;;;;;144.00;73.05;;;7.50;99.90;;;;;;5041237;28;20041;-85
2021/12/15 12:45:26;;;;;;;122.28;65.88;;;7.30;99.90;;;;;;5039058;28;20124;-85
2021/12/15 12:48:11;;;;;;;;;;;7.20;99.90;;;;;;5022469;28;20056;-84
2021/12/15 12:57:54;;;;;;;124.80;63.33;;;7.10;99.90;;;;;;5039670;28;19921;-82
2021/12/15 12:59:32;;;;;;;129.98;66.60;;;7.20;99.90;;;;;;5051523;28;20037;-81
2021/12/15 13:02:01;;;;;;;136.93;73.13;;;7.20;99.90;;;;;;5067545;28;20036;-82
2021/12/15 13:04:41;;;;;;;134.88;69.63;;;7.30;99.90;;;;;;5064928;28;20096;-81
2021/12/15 13:07:09;;;;;;;144.45;76.07;;;7.30;99.90;;;;;;5065030;28;20110;-83
2021/12/15 13:09:46;;;;;;;147.02;78.07;;;7.50;99.90;;;;;;5047235;28;20102;-84
2021/12/15 13:12:27;;;;;;;151.05;80.03;;;7.40;99.90;;;;;;5063451;28;20029;-82
2021/12/15 13:14:57;;;;;;;142.52;75.13;;;7.40;99.90;;;;;;5062303;28;20132;-81
2021/12/15 13:17:28;;;;;;;143.18;77.72;;;7.40;99.90;;;;;;5058773;28;20049;-82
2021/12/15 13:20:07;;;;;;;138.02;72.25;;;7.50;99.90;;;;;;5045001;28;20380;-84
2021/12/15 13:23:02;;;;;;;137.45;74.85;;;7.50;99.90;;;;;;5070684;28;20161;-84
2021/12/15 13:28:47;;;;;;;147.73;76.35;;;7.40;99.90;;;;;;5057242;28;20130;-82
2021/12/15 13:31:18;;;;;;;137.77;73.38;;;7.50;99.90;;;;;;5031040;28;20061;-83
2021/12/15 13:33:50;;;;;;;144.40;74.28;;;7.40;99.90;;;;;;5030805;28;20083;-83
2021/12/15 13:36:20;;;;;;;137.70;71.15;;;7.30;99.90;;;;;;5038324;28;20503;-81
2021/12/15 13:38:50;;;;;;;140.85;75.65;;;7.10;99.90;;;;;;5039559;28;20048;-83
2021/12/15 13:41:25;;;;;;;142.02;77.10;;;7.00;99.90;;;;;;5058383;28;20037;-82
2021/12/15 13:44:01;;;;;;;134.87;69.97;;;7.00;99.90;;;;;;5014255;28;1237446;-82
2021/12/15 13:46:36;;;;;;;132.38;70.18;;;7.00;99.90;;;;;;5040388;28;20092;-84
2021/12/15 13:49:11;;;;;;;131.60;69.43;;;7.10;99.90;;;;;;5059546;28;20044;-83
2021/12/15 13:52:03;;;;;;;134.70;69.35;;;7.10;99.90;;;;;;5041505;28;20045;-83